sensor_id;sensor_type;location;lat;lon;timestamp;P1;durP1;ratioP1;P2;durP2;ratioP2
18879;SDS011;9572;52.378;13.404;2022-08-19T00:01:21;13.82;;;12.43;;
18879;SDS011;9572;52.378;13.404;2022-08-19T00:03:48;13.52;;;12.15;;
18879;SDS011;9572;52.378;13.404;2022-08-19T00:06:15;12.60;;;11.25;;
18879;SDS011;9572;52.378;13.404;2022-08-19T00:08:42;14.35;;;12.23;;
18879;SDS011;9572;52.378;13.404;2022-08-19T00:11:10;13.43;;;12.02;;
18879;SDS011;9572;52.378;13.404;2022-08-19T00:13:38;14.95;;;11.60;;
18879;SDS011;9572;52.378;13.404;2022-08-19T00:16:06;15.65;;;11.07;;
18879;SDS011;9572;52.378;13.404;2022-08-19T00:18:33;13.38;;;10.32;;
18879;SDS011;9572;52.378;13.404;2022-08-19T00:21:00;15.27;;;12.02;;
18879;SDS011;9572;52.378;13.404;2022-08-19T00:23:27;14.45;;;11.27;;
18879;SDS011;9572;52.378;13.404;2022-08-19T00:25:55;12.38;;;11.13;;
18879;SDS011;9572;52.378;13.404;2022-08-19T00:28:22;12.88;;;11.57;;
18879;SDS011;9572;52.378;13.404;2022-08-19T00:30:50;12.30;;;10.50;;
18879;SDS011;9572;52.378;13.404;2022-08-19T00:33:18;13.23;;;10.98;;
18879;SDS011;9572;52.378;13.404;2022-08-19T00:35:45;13.02;;;11.75;;
18879;SDS011;9572;52.378;13.404;2022-08-19T00:38:12;14.15;;;12.02;;
18879;SDS011;9572;52.378;13.404;2022-08-19T00:40:39;14.45;;;12.32;;
18879;SDS011;9572;52.378;13.404;2022-08-19T00:43:08;15.57;;;13.30;;
18879;SDS011;9572;52.378;13.404;2022-08-19T00:45:38;16.98;;;13.25;;
18879;SDS011;9572;52.378;13.404;2022-08-19T00:48:08;13.68;;;12.27;;
18879;SDS011;9572;52.378;13.404;2022-08-19T00:50:35;16.45;;;13.70;;
18879;SDS011;9572;52.378;13.404;2022-08-19T00:53:03;16.73;;;13.27;;
18879;SDS011;9572;52.378;13.404;2022-08-19T00:55:31;18.30;;;13.82;;
18879;SDS011;9572;52.378;13.404;2022-08-19T00:58:03;15.60;;;14.00;;
18879;SDS011;9572;52.378;13.404;2022-08-19T01:00:33;15.90;;;14.30;;
18879;SDS011;9572;52.378;13.404;2022-08-19T01:03:02;16.35;;;14.48;;
18879;SDS011;9572;52.378;13.404;2022-08-19T01:05:30;15.70;;;14.02;;
18879;SDS011;9572;52.378;13.404;2022-08-19T01:07:58;18.35;;;13.88;;
18879;SDS011;9572;52.378;13.404;2022-08-19T01:10:29;15.73;;;13.45;;
18879;SDS011;9572;52.378;13.404;2022-08-19T01:12:59;16.65;;;13.50;;
18879;SDS011;9572;52.378;13.404;2022-08-19T01:15:30;15.93;;;12.52;;
18879;SDS011;9572;52.378;13.404;2022-08-19T01:18:00;16.65;;;13.52;;
18879;SDS011;9572;52.378;13.404;2022-08-19T01:20:32;19.35;;;14.13;;
18879;SDS011;9572;52.378;13.404;2022-08-19T01:23:01;15.77;;;14.07;;
18879;SDS011;9572;52.378;13.404;2022-08-19T01:25:31;20.70;;;14.77;;
18879;SDS011;9572;52.378;13.404;2022-08-19T01:28:00;19.15;;;14.77;;
18879;SDS011;9572;52.378;13.404;2022-08-19T01:30:29;19.98;;;16.38;;
18879;SDS011;9572;52.378;13.404;2022-08-19T01:32:58;21.33;;;14.93;;
18879;SDS011;9572;52.378;13.404;2022-08-19T01:35:26;22.00;;;15.73;;
18879;SDS011;9572;52.378;13.404;2022-08-19T01:37:57;16.67;;;14.02;;
18879;SDS011;9572;52.378;13.404;2022-08-19T01:40:29;19.23;;;14.85;;
18879;SDS011;9572;52.378;13.404;2022-08-19T01:42:58;19.50;;;15.13;;
18879;SDS011;9572;52.378;13.404;2022-08-19T01:45:26;23.08;;;14.73;;
18879;SDS011;9572;52.378;13.404;2022-08-19T01:47:54;23.55;;;15.77;;
18879;SDS011;9572;52.378;13.404;2022-08-19T01:50:22;19.95;;;16.00;;
18879;SDS011;9572;52.378;13.404;2022-08-19T01:52:49;20.70;;;14.45;;
18879;SDS011;9572;52.378;13.404;2022-08-19T01:55:21;18.75;;;15.20;;
18879;SDS011;9572;52.378;13.404;2022-08-19T01:57:52;23.77;;;15.02;;
18879;SDS011;9572;52.378;13.404;2022-08-19T02:00:22;19.30;;;14.35;;
18879;SDS011;9572;52.378;13.404;2022-08-19T02:02:51;15.75;;;14.05;;
18879;SDS011;9572;52.378;13.404;2022-08-19T02:05:18;16.40;;;14.60;;
18879;SDS011;9572;52.378;13.404;2022-08-19T02:07:46;15.82;;;13.65;;
18879;SDS011;9572;52.378;13.404;2022-08-19T02:10:15;15.45;;;13.85;;
18879;SDS011;9572;52.378;13.404;2022-08-19T02:12:43;19.70;;;14.88;;
18879;SDS011;9572;52.378;13.404;2022-08-19T02:15:12;16.70;;;13.15;;
18879;SDS011;9572;52.378;13.404;2022-08-19T02:17:40;18.35;;;14.90;;
18879;SDS011;9572;52.378;13.404;2022-08-19T02:20:07;17.17;;;14.27;;
18879;SDS011;9572;52.378;13.404;2022-08-19T02:22:35;16.73;;;13.98;;
18879;SDS011;9572;52.378;13.404;2022-08-19T02:25:02;15.93;;;14.32;;
18879;SDS011;9572;52.378;13.404;2022-08-19T02:27:30;16.67;;;14.88;;
18879;SDS011;9572;52.378;13.404;2022-08-19T02:29:58;20.20;;;15.95;;
18879;SDS011;9572;52.378;13.404;2022-08-19T02:32:27;20.25;;;15.13;;
18879;SDS011;9572;52.378;13.404;2022-08-19T02:34:55;19.83;;;15.52;;
18879;SDS011;9572;52.378;13.404;2022-08-19T02:37:22;16.65;;;14.30;;
18879;SDS011;9572;52.378;13.404;2022-08-19T02:40:07;18.10;;;15.18;;
18879;SDS011;9572;52.378;13.404;2022-08-19T02:42:34;18.70;;;14.15;;
18879;SDS011;9572;52.378;13.404;2022-08-19T02:45:01;18.88;;;14.90;;
18879;SDS011;9572;52.378;13.404;2022-08-19T02:47:30;17.10;;;15.05;;
18879;SDS011;9572;52.378;13.404;2022-08-19T02:49:56;17.02;;;14.07;;
18879;SDS011;9572;52.378;13.404;2022-08-19T02:52:23;18.20;;;14.93;;
18879;SDS011;9572;52.378;13.404;2022-08-19T02:54:52;15.32;;;13.73;;
18879;SDS011;9572;52.378;13.404;2022-08-19T02:57:22;17.45;;;14.13;;
18879;SDS011;9572;52.378;13.404;2022-08-19T02:59:49;13.75;;;12.35;;
18879;SDS011;9572;52.378;13.404;2022-08-19T03:02:16;15.27;;;12.75;;
18879;SDS011;9572;52.378;13.404;2022-08-19T03:04:44;14.18;;;12.15;;
18879;SDS011;9572;52.378;13.404;2022-08-19T03:07:12;14.85;;;12.63;;
18879;SDS011;9572;52.378;13.404;2022-08-19T03:09:39;17.15;;;13.23;;
18879;SDS011;9572;52.378;13.404;2022-08-19T03:12:07;14.30;;;12.05;;
18879;SDS011;9572;52.378;13.404;2022-08-19T03:14:34;13.70;;;12.05;;
18879;SDS011;9572;52.378;13.404;2022-08-19T03:17:02;16.13;;;12.23;;
18879;SDS011;9572;52.378;13.404;2022-08-19T03:19:30;15.93;;;13.32;;
18879;SDS011;9572;52.378;13.404;2022-08-19T03:21:58;13.45;;;12.05;;
18879;SDS011;9572;52.378;13.404;2022-08-19T03:24:25;14.75;;;11.40;;
18879;SDS011;9572;52.378;13.404;2022-08-19T03:26:53;16.23;;;13.05;;
18879;SDS011;9572;52.378;13.404;2022-08-19T03:29:22;16.42;;;12.57;;
18879;SDS011;9572;52.378;13.404;2022-08-19T03:31:50;14.55;;;12.88;;
18879;SDS011;9572;52.378;13.404;2022-08-19T03:34:18;14.35;;;12.95;;
18879;SDS011;9572;52.378;13.404;2022-08-19T03:36:46;19.45;;;14.93;;
18879;SDS011;9572;52.378;13.404;2022-08-19T03:39:17;14.90;;;13.38;;
18879;SDS011;9572;52.378;13.404;2022-08-19T03:41:44;15.80;;;13.45;;
18879;SDS011;9572;52.378;13.404;2022-08-19T03:44:14;16.13;;;14.35;;
18879;SDS011;9572;52.378;13.404;2022-08-19T03:46:44;21.77;;;17.60;;
18879;SDS011;9572;52.378;13.404;2022-08-19T03:49:12;22.88;;;17.83;;
18879;SDS011;9572;52.378;13.404;2022-08-19T03:51:39;20.98;;;18.23;;
18879;SDS011;9572;52.378;13.404;2022-08-19T03:54:09;23.17;;;19.52;;
18879;SDS011;9572;52.378;13.404;2022-08-19T03:56:40;28.83;;;20.98;;
18879;SDS011;9572;52.378;13.404;2022-08-19T03:59:09;28.60;;;20.73;;
18879;SDS011;9572;52.378;13.404;2022-08-19T04:01:38;25.83;;;21.25;;
18879;SDS011;9572;52.378;13.404;2022-08-19T04:04:05;22.55;;;20.10;;
18879;SDS011;9572;52.378;13.404;2022-08-19T04:06:34;30.20;;;23.35;;
18879;SDS011;9572;52.378;13.404;2022-08-19T04:09:03;28.08;;;21.73;;
18879;SDS011;9572;52.378;13.404;2022-08-19T04:11:33;24.35;;;19.50;;
18879;SDS011;9572;52.378;13.404;2022-08-19T04:14:07;20.60;;;17.33;;
18879;SDS011;9572;52.378;13.404;2022-08-19T04:16:34;21.08;;;16.98;;
18879;SDS011;9572;52.378;13.404;2022-08-19T04:19:02;20.33;;;17.30;;
18879;SDS011;9572;52.378;13.404;2022-08-19T04:21:31;25.38;;;17.55;;
18879;SDS011;9572;52.378;13.404;2022-08-19T04:23:58;21.67;;;16.08;;
18879;SDS011;9572;52.378;13.404;2022-08-19T04:26:26;19.58;;;16.75;;
18879;SDS011;9572;52.378;13.404;2022-08-19T04:28:57;18.25;;;16.13;;
18879;SDS011;9572;52.378;13.404;2022-08-19T04:31:27;18.77;;;15.23;;
18879;SDS011;9572;52.378;13.404;2022-08-19T04:33:59;18.63;;;15.45;;
18879;SDS011;9572;52.378;13.404;2022-08-19T04:36:28;18.70;;;15.52;;
18879;SDS011;9572;52.378;13.404;2022-08-19T04:38:57;17.23;;;15.15;;
18879;SDS011;9572;52.378;13.404;2022-08-19T04:41:26;18.90;;;15.55;;
18879;SDS011;9572;52.378;13.404;2022-08-19T04:44:11;18.95;;;15.88;;
18879;SDS011;9572;52.378;13.404;2022-08-19T04:46:39;17.33;;;15.32;;
18879;SDS011;9572;52.378;13.404;2022-08-19T04:49:06;18.90;;;15.52;;
18879;SDS011;9572;52.378;13.404;2022-08-19T04:51:34;17.63;;;15.82;;
18879;SDS011;9572;52.378;13.404;2022-08-19T04:54:02;21.00;;;16.10;;
18879;SDS011;9572;52.378;13.404;2022-08-19T04:56:29;17.40;;;14.68;;
18879;SDS011;9572;52.378;13.404;2022-08-19T04:58:56;17.30;;;15.57;;
18879;SDS011;9572;52.378;13.404;2022-08-19T05:01:28;16.08;;;14.45;;
18879;SDS011;9572;52.378;13.404;2022-08-19T05:03:58;30.00;;;15.03;;
18879;SDS011;9572;52.378;13.404;2022-08-19T05:06:26;17.95;;;16.05;;
18879;SDS011;9572;52.378;13.404;2022-08-19T05:08:57;16.45;;;14.85;;
18879;SDS011;9572;52.378;13.404;2022-08-19T05:11:26;18.98;;;14.60;;
18879;SDS011;9572;52.378;13.404;2022-08-19T05:13:55;17.13;;;15.25;;
18879;SDS011;9572;52.378;13.404;2022-08-19T05:16:23;16.77;;;14.90;;
18879;SDS011;9572;52.378;13.404;2022-08-19T05:18:51;17.33;;;15.43;;
18879;SDS011;9572;52.378;13.404;2022-08-19T05:21:39;16.65;;;14.35;;
18879;SDS011;9572;52.378;13.404;2022-08-19T05:24:25;16.05;;;14.43;;
18879;SDS011;9572;52.378;13.404;2022-08-19T05:26:52;17.50;;;13.80;;
18879;SDS011;9572;52.378;13.404;2022-08-19T05:29:22;16.17;;;13.60;;
18879;SDS011;9572;52.378;13.404;2022-08-19T05:31:52;14.63;;;13.23;;
18879;SDS011;9572;52.378;13.404;2022-08-19T05:34:20;15.75;;;14.00;;
18879;SDS011;9572;52.378;13.404;2022-08-19T05:36:51;14.98;;;13.43;;
18879;SDS011;9572;52.378;13.404;2022-08-19T05:39:22;17.00;;;12.63;;
18879;SDS011;9572;52.378;13.404;2022-08-19T05:41:51;15.88;;;14.10;;
18879;SDS011;9572;52.378;13.404;2022-08-19T05:44:22;14.65;;;13.07;;
18879;SDS011;9572;52.378;13.404;2022-08-19T05:46:50;14.88;;;13.38;;
18879;SDS011;9572;52.378;13.404;2022-08-19T05:49:19;17.40;;;13.45;;
18879;SDS011;9572;52.378;13.404;2022-08-19T05:51:48;14.63;;;12.80;;
18879;SDS011;9572;52.378;13.404;2022-08-19T05:54:17;15.35;;;13.23;;
18879;SDS011;9572;52.378;13.404;2022-08-19T05:56:45;13.50;;;12.20;;
18879;SDS011;9572;52.378;13.404;2022-08-19T05:59:13;14.48;;;13.00;;
18879;SDS011;9572;52.378;13.404;2022-08-19T06:01:42;16.60;;;13.90;;
18879;SDS011;9572;52.378;13.404;2022-08-19T06:04:11;17.38;;;14.00;;
18879;SDS011;9572;52.378;13.404;2022-08-19T06:06:39;15.88;;;13.90;;
18879;SDS011;9572;52.378;13.404;2022-08-19T06:09:07;18.20;;;14.57;;
18879;SDS011;9572;52.378;13.404;2022-08-19T06:11:36;21.50;;;15.18;;
18879;SDS011;9572;52.378;13.404;2022-08-19T06:14:07;16.40;;;14.70;;
18879;SDS011;9572;52.378;13.404;2022-08-19T06:16:36;23.83;;;19.98;;
18879;SDS011;9572;52.378;13.404;2022-08-19T06:19:05;19.08;;;14.98;;
18879;SDS011;9572;52.378;13.404;2022-08-19T06:21:42;21.55;;;15.20;;
18879;SDS011;9572;52.378;13.404;2022-08-19T06:24:11;15.32;;;13.63;;
18879;SDS011;9572;52.378;13.404;2022-08-19T06:26:41;15.75;;;13.95;;
18879;SDS011;9572;52.378;13.404;2022-08-19T06:29:13;15.27;;;13.73;;
18879;SDS011;9572;52.378;13.404;2022-08-19T06:31:42;18.23;;;14.40;;
18879;SDS011;9572;52.378;13.404;2022-08-19T06:34:11;15.70;;;13.48;;
18879;SDS011;9572;52.378;13.404;2022-08-19T06:36:39;16.30;;;13.02;;
18879;SDS011;9572;52.378;13.404;2022-08-19T06:39:09;14.82;;;13.30;;
18879;SDS011;9572;52.378;13.404;2022-08-19T06:41:37;14.45;;;12.63;;
18879;SDS011;9572;52.378;13.404;2022-08-19T06:44:08;16.05;;;12.35;;
18879;SDS011;9572;52.378;13.404;2022-08-19T06:46:35;14.07;;;12.60;;
18879;SDS011;9572;52.378;13.404;2022-08-19T06:49:03;16.40;;;13.60;;
18879;SDS011;9572;52.378;13.404;2022-08-19T06:51:34;15.57;;;13.73;;
18879;SDS011;9572;52.378;13.404;2022-08-19T06:54:01;15.80;;;13.20;;
18879;SDS011;9572;52.378;13.404;2022-08-19T06:56:29;13.20;;;11.32;;
18879;SDS011;9572;52.378;13.404;2022-08-19T06:58:58;18.13;;;14.00;;
18879;SDS011;9572;52.378;13.404;2022-08-19T07:01:27;14.55;;;12.32;;
18879;SDS011;9572;52.378;13.404;2022-08-19T07:03:54;15.50;;;13.90;;
18879;SDS011;9572;52.378;13.404;2022-08-19T07:06:22;13.57;;;12.25;;
18879;SDS011;9572;52.378;13.404;2022-08-19T07:08:49;14.95;;;13.25;;
18879;SDS011;9572;52.378;13.404;2022-08-19T07:11:17;14.48;;;13.02;;
18879;SDS011;9572;52.378;13.404;2022-08-19T07:13:45;13.85;;;12.02;;
18879;SDS011;9572;52.378;13.404;2022-08-19T07:16:14;14.40;;;12.90;;
18879;SDS011;9572;52.378;13.404;2022-08-19T07:18:45;15.32;;;13.18;;
18879;SDS011;9572;52.378;13.404;2022-08-19T07:21:14;13.50;;;12.07;;
18879;SDS011;9572;52.378;13.404;2022-08-19T07:23:42;15.93;;;13.18;;
18879;SDS011;9572;52.378;13.404;2022-08-19T07:26:12;16.90;;;12.93;;
18879;SDS011;9572;52.378;13.404;2022-08-19T07:28:40;15.07;;;13.25;;
18879;SDS011;9572;52.378;13.404;2022-08-19T07:31:09;15.63;;;13.00;;
18879;SDS011;9572;52.378;13.404;2022-08-19T07:33:37;15.18;;;13.50;;
18879;SDS011;9572;52.378;13.404;2022-08-19T07:36:07;16.33;;;14.60;;
18879;SDS011;9572;52.378;13.404;2022-08-19T07:38:36;17.88;;;13.63;;
18879;SDS011;9572;52.378;13.404;2022-08-19T07:41:04;15.02;;;13.25;;
18879;SDS011;9572;52.378;13.404;2022-08-19T07:43:32;14.60;;;12.60;;
18879;SDS011;9572;52.378;13.404;2022-08-19T07:45:59;15.30;;;13.70;;
18879;SDS011;9572;52.378;13.404;2022-08-19T07:48:26;16.02;;;13.70;;
18879;SDS011;9572;52.378;13.404;2022-08-19T07:50:54;17.33;;;13.32;;
18879;SDS011;9572;52.378;13.404;2022-08-19T07:53:27;19.50;;;13.38;;
18879;SDS011;9572;52.378;13.404;2022-08-19T07:55:54;15.65;;;13.13;;
18879;SDS011;9572;52.378;13.404;2022-08-19T07:58:29;15.27;;;12.25;;
18879;SDS011;9572;52.378;13.404;2022-08-19T08:00:57;14.23;;;12.63;;
18879;SDS011;9572;52.378;13.404;2022-08-19T08:03:25;13.25;;;11.88;;
18879;SDS011;9572;52.378;13.404;2022-08-19T08:06:07;19.23;;;14.88;;
18879;SDS011;9572;52.378;13.404;2022-08-19T08:08:52;13.73;;;12.40;;
18879;SDS011;9572;52.378;13.404;2022-08-19T08:11:33;14.93;;;13.25;;
18879;SDS011;9572;52.378;13.404;2022-08-19T08:14:00;21.00;;;15.15;;
18879;SDS011;9572;52.378;13.404;2022-08-19T08:16:27;15.48;;;13.80;;
18879;SDS011;9572;52.378;13.404;2022-08-19T08:18:56;15.18;;;12.93;;
18879;SDS011;9572;52.378;13.404;2022-08-19T08:21:23;14.90;;;13.40;;
18879;SDS011;9572;52.378;13.404;2022-08-19T08:23:50;15.38;;;13.93;;
18879;SDS011;9572;52.378;13.404;2022-08-19T08:26:18;15.98;;;13.48;;
18879;SDS011;9572;52.378;13.404;2022-08-19T08:28:45;15.45;;;13.15;;
18879;SDS011;9572;52.378;13.404;2022-08-19T08:31:13;16.33;;;14.25;;
18879;SDS011;9572;52.378;13.404;2022-08-19T08:33:40;17.35;;;14.10;;
18879;SDS011;9572;52.378;13.404;2022-08-19T08:36:08;15.35;;;13.77;;
18879;SDS011;9572;52.378;13.404;2022-08-19T08:38:36;16.30;;;14.60;;
18879;SDS011;9572;52.378;13.404;2022-08-19T08:41:05;16.83;;;15.05;;
18879;SDS011;9572;52.378;13.404;2022-08-19T08:43:44;16.65;;;14.85;;
18879;SDS011;9572;52.378;13.404;2022-08-19T08:46:14;14.95;;;13.13;;
18879;SDS011;9572;52.378;13.404;2022-08-19T08:48:47;16.80;;;14.93;;
18879;SDS011;9572;52.378;13.404;2022-08-19T08:51:20;16.73;;;15.10;;
18879;SDS011;9572;52.378;13.404;2022-08-19T08:53:51;15.30;;;13.68;;
18879;SDS011;9572;52.378;13.404;2022-08-19T08:56:19;16.80;;;14.80;;
18879;SDS011;9572;52.378;13.404;2022-08-19T08:58:49;15.15;;;13.65;;
18879;SDS011;9572;52.378;13.404;2022-08-19T09:01:23;15.57;;;13.98;;
18879;SDS011;9572;52.378;13.404;2022-08-19T09:03:50;17.20;;;15.48;;
18879;SDS011;9572;52.378;13.404;2022-08-19T09:06:21;16.02;;;14.38;;
18879;SDS011;9572;52.378;13.404;2022-08-19T09:08:55;18.17;;;15.38;;
18879;SDS011;9572;52.378;13.404;2022-08-19T09:11:34;18.23;;;15.68;;
18879;SDS011;9572;52.378;13.404;2022-08-19T09:14:12;17.92;;;14.60;;
18879;SDS011;9572;52.378;13.404;2022-08-19T09:16:46;16.58;;;14.85;;
18879;SDS011;9572;52.378;13.404;2022-08-19T09:19:14;18.30;;;16.40;;
18879;SDS011;9572;52.378;13.404;2022-08-19T09:21:42;19.58;;;17.08;;
18879;SDS011;9572;52.378;13.404;2022-08-19T09:24:10;17.52;;;15.40;;
18879;SDS011;9572;52.378;13.404;2022-08-19T09:26:38;20.17;;;15.48;;
18879;SDS011;9572;52.378;13.404;2022-08-19T09:29:05;16.77;;;15.05;;
18879;SDS011;9572;52.378;13.404;2022-08-19T09:31:34;18.27;;;16.38;;
18879;SDS011;9572;52.378;13.404;2022-08-19T09:34:00;18.42;;;16.42;;
18879;SDS011;9572;52.378;13.404;2022-08-19T09:36:29;18.38;;;16.20;;
18879;SDS011;9572;52.378;13.404;2022-08-19T09:38:58;18.02;;;16.13;;
18879;SDS011;9572;52.378;13.404;2022-08-19T09:41:26;17.33;;;15.63;;
18879;SDS011;9572;52.378;13.404;2022-08-19T09:43:55;18.23;;;16.33;;
18879;SDS011;9572;52.378;13.404;2022-08-19T09:46:24;19.23;;;17.20;;
18879;SDS011;9572;52.378;13.404;2022-08-19T09:48:52;18.45;;;16.45;;
18879;SDS011;9572;52.378;13.404;2022-08-19T09:51:21;20.60;;;17.10;;
18879;SDS011;9572;52.378;13.404;2022-08-19T09:53:51;18.80;;;16.95;;
18879;SDS011;9572;52.378;13.404;2022-08-19T09:56:20;20.58;;;18.23;;
18879;SDS011;9572;52.378;13.404;2022-08-19T09:58:49;19.05;;;17.08;;
18879;SDS011;9572;52.378;13.404;2022-08-19T10:01:18;19.67;;;17.58;;
18879;SDS011;9572;52.378;13.404;2022-08-19T10:03:47;17.65;;;15.85;;
18879;SDS011;9572;52.378;13.404;2022-08-19T10:06:16;17.00;;;15.27;;
18879;SDS011;9572;52.378;13.404;2022-08-19T10:08:43;18.42;;;15.30;;
18879;SDS011;9572;52.378;13.404;2022-08-19T10:11:11;19.63;;;17.58;;
18879;SDS011;9572;52.378;13.404;2022-08-19T10:13:39;17.42;;;14.75;;
18879;SDS011;9572;52.378;13.404;2022-08-19T10:16:07;15.93;;;13.77;;
18879;SDS011;9572;52.378;13.404;2022-08-19T10:18:38;17.52;;;15.52;;
18879;SDS011;9572;52.378;13.404;2022-08-19T10:21:10;18.00;;;16.15;;
18879;SDS011;9572;52.378;13.404;2022-08-19T10:23:39;16.27;;;14.38;;
18879;SDS011;9572;52.378;13.404;2022-08-19T10:26:10;16.58;;;14.25;;
18879;SDS011;9572;52.378;13.404;2022-08-19T10:28:39;19.65;;;14.93;;
18879;SDS011;9572;52.378;13.404;2022-08-19T10:31:07;20.00;;;14.68;;
18879;SDS011;9572;52.378;13.404;2022-08-19T10:33:38;16.40;;;14.82;;
18879;SDS011;9572;52.378;13.404;2022-08-19T10:36:07;16.98;;;14.02;;
18879;SDS011;9572;52.378;13.404;2022-08-19T10:38:35;18.17;;;15.05;;
18879;SDS011;9572;52.378;13.404;2022-08-19T10:41:06;16.17;;;14.52;;
18879;SDS011;9572;52.378;13.404;2022-08-19T10:43:34;16.95;;;14.32;;
18879;SDS011;9572;52.378;13.404;2022-08-19T10:46:03;15.50;;;14.10;;
18879;SDS011;9572;52.378;13.404;2022-08-19T10:48:30;15.25;;;13.40;;
18879;SDS011;9572;52.378;13.404;2022-08-19T10:50:59;16.33;;;14.38;;
18879;SDS011;9572;52.378;13.404;2022-08-19T10:53:40;15.23;;;13.63;;
18879;SDS011;9572;52.378;13.404;2022-08-19T10:56:07;15.30;;;13.88;;
18879;SDS011;9572;52.378;13.404;2022-08-19T10:58:51;16.20;;;14.50;;
18879;SDS011;9572;52.378;13.404;2022-08-19T11:01:18;15.73;;;14.02;;
18879;SDS011;9572;52.378;13.404;2022-08-19T11:03:45;15.43;;;13.82;;
18879;SDS011;9572;52.378;13.404;2022-08-19T11:06:13;15.02;;;13.57;;
18879;SDS011;9572;52.378;13.404;2022-08-19T11:08:40;15.60;;;13.60;;
18879;SDS011;9572;52.378;13.404;2022-08-19T11:11:09;16.70;;;14.02;;
18879;SDS011;9572;52.378;13.404;2022-08-19T11:13:38;15.80;;;14.20;;
18879;SDS011;9572;52.378;13.404;2022-08-19T11:16:08;20.40;;;13.65;;
18879;SDS011;9572;52.378;13.404;2022-08-19T11:18:38;15.95;;;12.63;;
18879;SDS011;9572;52.378;13.404;2022-08-19T11:21:09;13.38;;;12.07;;
18879;SDS011;9572;52.378;13.404;2022-08-19T11:23:40;14.15;;;12.68;;
18879;SDS011;9572;52.378;13.404;2022-08-19T11:26:07;13.30;;;11.90;;
18879;SDS011;9572;52.378;13.404;2022-08-19T11:28:34;16.70;;;12.93;;
18879;SDS011;9572;52.378;13.404;2022-08-19T11:31:01;14.90;;;13.30;;
18879;SDS011;9572;52.378;13.404;2022-08-19T11:33:29;14.13;;;12.63;;
18879;SDS011;9572;52.378;13.404;2022-08-19T11:35:56;15.15;;;12.23;;
18879;SDS011;9572;52.378;13.404;2022-08-19T11:38:25;13.65;;;12.25;;
18879;SDS011;9572;52.378;13.404;2022-08-19T11:40:56;14.65;;;13.25;;
18879;SDS011;9572;52.378;13.404;2022-08-19T11:43:24;13.52;;;12.13;;
18879;SDS011;9572;52.378;13.404;2022-08-19T11:45:52;15.38;;;13.30;;
18879;SDS011;9572;52.378;13.404;2022-08-19T11:48:19;14.55;;;12.88;;
18879;SDS011;9572;52.378;13.404;2022-08-19T11:50:47;14.30;;;12.88;;
18879;SDS011;9572;52.378;13.404;2022-08-19T11:53:15;14.32;;;12.82;;
18879;SDS011;9572;52.378;13.404;2022-08-19T11:55:44;13.05;;;11.75;;
18879;SDS011;9572;52.378;13.404;2022-08-19T11:58:12;16.75;;;12.88;;
18879;SDS011;9572;52.378;13.404;2022-08-19T12:00:41;14.07;;;11.90;;
18879;SDS011;9572;52.378;13.404;2022-08-19T12:03:10;13.80;;;12.20;;
18879;SDS011;9572;52.378;13.404;2022-08-19T12:05:38;12.77;;;11.57;;
18879;SDS011;9572;52.378;13.404;2022-08-19T12:08:06;13.02;;;11.73;;
18879;SDS011;9572;52.378;13.404;2022-08-19T12:10:33;13.55;;;11.65;;
18879;SDS011;9572;52.378;13.404;2022-08-19T12:13:00;13.85;;;11.60;;
18879;SDS011;9572;52.378;13.404;2022-08-19T12:15:29;12.35;;;11.05;;
18879;SDS011;9572;52.378;13.404;2022-08-19T12:17:56;12.35;;;10.98;;
18879;SDS011;9572;52.378;13.404;2022-08-19T12:20:23;13.98;;;9.95;;
18879;SDS011;9572;52.378;13.404;2022-08-19T12:22:51;11.60;;;10.48;;
18879;SDS011;9572;52.378;13.404;2022-08-19T12:25:18;11.45;;;10.20;;
18879;SDS011;9572;52.378;13.404;2022-08-19T12:27:46;12.23;;;10.45;;
18879;SDS011;9572;52.378;13.404;2022-08-19T12:30:13;11.40;;;10.30;;
18879;SDS011;9572;52.378;13.404;2022-08-19T12:32:41;10.50;;;9.40;;
18879;SDS011;9572;52.378;13.404;2022-08-19T12:35:08;10.68;;;9.57;;
18879;SDS011;9572;52.378;13.404;2022-08-19T12:37:36;11.75;;;10.65;;
18879;SDS011;9572;52.378;13.404;2022-08-19T12:40:04;9.80;;;8.85;;
18879;SDS011;9572;52.378;13.404;2022-08-19T12:42:32;10.38;;;9.38;;
18879;SDS011;9572;52.378;13.404;2022-08-19T12:44:59;11.65;;;9.25;;
18879;SDS011;9572;52.378;13.404;2022-08-19T12:47:26;9.90;;;8.82;;
18879;SDS011;9572;52.378;13.404;2022-08-19T12:49:55;10.55;;;9.05;;
18879;SDS011;9572;52.378;13.404;2022-08-19T12:52:23;10.80;;;9.70;;
18879;SDS011;9572;52.378;13.404;2022-08-19T12:54:52;11.00;;;8.80;;
18879;SDS011;9572;52.378;13.404;2022-08-19T12:57:20;9.90;;;8.90;;
18879;SDS011;9572;52.378;13.404;2022-08-19T12:59:51;10.40;;;9.38;;
18879;SDS011;9572;52.378;13.404;2022-08-19T13:02:19;10.20;;;8.70;;
18879;SDS011;9572;52.378;13.404;2022-08-19T13:04:47;9.85;;;8.77;;
18879;SDS011;9572;52.378;13.404;2022-08-19T13:07:15;9.85;;;8.95;;
18879;SDS011;9572;52.378;13.404;2022-08-19T13:09:42;9.40;;;8.35;;
18879;SDS011;9572;52.378;13.404;2022-08-19T13:12:09;12.55;;;9.18;;
18879;SDS011;9572;52.378;13.404;2022-08-19T13:14:38;9.75;;;7.97;;
18879;SDS011;9572;52.378;13.404;2022-08-19T13:17:05;9.30;;;8.35;;
18879;SDS011;9572;52.378;13.404;2022-08-19T13:19:33;11.10;;;8.70;;
18879;SDS011;9572;52.378;13.404;2022-08-19T13:22:02;9.15;;;8.25;;
18879;SDS011;9572;52.378;13.404;2022-08-19T13:24:30;8.73;;;7.93;;
18879;SDS011;9572;52.378;13.404;2022-08-19T13:26:58;10.25;;;8.02;;
18879;SDS011;9572;52.378;13.404;2022-08-19T13:29:25;11.93;;;8.00;;
18879;SDS011;9572;52.378;13.404;2022-08-19T13:32:09;8.55;;;7.57;;
18879;SDS011;9572;52.378;13.404;2022-08-19T13:34:54;8.60;;;7.38;;
18879;SDS011;9572;52.378;13.404;2022-08-19T13:37:20;10.27;;;7.95;;
18879;SDS011;9572;52.378;13.404;2022-08-19T13:40:08;8.82;;;7.90;;
18879;SDS011;9572;52.378;13.404;2022-08-19T13:42:39;9.30;;;7.13;;
18879;SDS011;9572;52.378;13.404;2022-08-19T13:45:06;10.07;;;9.00;;
18879;SDS011;9572;52.378;13.404;2022-08-19T13:47:34;12.93;;;11.43;;
18879;SDS011;9572;52.378;13.404;2022-08-19T13:50:08;13.35;;;11.73;;
18879;SDS011;9572;52.378;13.404;2022-08-19T13:52:35;16.48;;;14.73;;
18879;SDS011;9572;52.378;13.404;2022-08-19T13:55:03;15.32;;;13.43;;
18879;SDS011;9572;52.378;13.404;2022-08-19T13:57:32;16.17;;;14.27;;
18879;SDS011;9572;52.378;13.404;2022-08-19T14:00:00;13.40;;;12.05;;
18879;SDS011;9572;52.378;13.404;2022-08-19T14:02:27;18.02;;;16.05;;
18879;SDS011;9572;52.378;13.404;2022-08-19T14:04:54;16.60;;;15.00;;
18879;SDS011;9572;52.378;13.404;2022-08-19T14:07:21;14.70;;;13.30;;
18879;SDS011;9572;52.378;13.404;2022-08-19T14:09:49;20.83;;;17.20;;
18879;SDS011;9572;52.378;13.404;2022-08-19T14:12:18;20.52;;;15.88;;
18879;SDS011;9572;52.378;13.404;2022-08-19T14:14:46;13.98;;;12.57;;
18879;SDS011;9572;52.378;13.404;2022-08-19T14:17:13;13.35;;;12.05;;
18879;SDS011;9572;52.378;13.404;2022-08-19T14:19:41;16.17;;;13.00;;
18879;SDS011;9572;52.378;13.404;2022-08-19T14:22:08;21.13;;;15.25;;
18879;SDS011;9572;52.378;13.404;2022-08-19T14:24:36;16.92;;;14.45;;
18879;SDS011;9572;52.378;13.404;2022-08-19T14:27:04;17.45;;;12.48;;
18879;SDS011;9572;52.378;13.404;2022-08-19T14:29:31;15.70;;;13.95;;
18879;SDS011;9572;52.378;13.404;2022-08-19T14:32:00;12.63;;;11.43;;
18879;SDS011;9572;52.378;13.404;2022-08-19T14:34:27;14.55;;;11.38;;